<?xml version='1.0' encoding='UTF-8'?><gpx version="1.1" creator="JPX - https://github.com/jenetics/jpx" xmlns="http://www.topografix.com/GPX/1/1"><trk><trkseg><trkpt lat="40.8225799" lon="14.8544577"><ele>513.0000000000001</ele><time>2026-04-25T12:14:19.018Z</time></trkpt><trkpt lat="40.8225172" lon="14.8544766"><ele>513.0</ele><time>2026-04-25T12:14:43.064Z</time></trkpt><trkpt lat="40.8224557" lon="14.8545161"><ele>513.0</ele><time>2026-04-25T12:14:48.019Z</time></trkpt><trkpt lat="40.8224028" lon="14.8545623"><ele>513.0</ele><time>2026-04-25T12:14:53.93Z</time></trkpt><trkpt lat="40.822366" lon="14.8546449"><ele>513.0</ele><time>2026-04-25T12:15:00.019Z</time></trkpt><trkpt lat="40.8223198" lon="14.8547219"><ele>513.0000000000001</ele><time>2026-04-25T12:15:05.022Z</time></trkpt><trkpt lat="40.8222946" lon="14.8548115"><ele>513.0</ele><time>2026-04-25T12:15:11.018Z</time></trkpt><trkpt lat="40.8222644" lon="14.8548928"><ele>513.0000000000001</ele><time>2026-04-25T12:15:16.018Z</time></trkpt><trkpt lat="40.822219" lon="14.8549721"><ele>513.0</ele><time>2026-04-25T12:15:21.043Z</time></trkpt><trkpt lat="40.8221746" lon="14.8550368"><ele>513.0</ele><time>2026-04-25T12:15:27.018Z</time></trkpt><trkpt lat="40.822108" lon="14.8550305"><ele>513.0</ele><time>2026-04-25T12:15:35.049Z</time></trkpt><trkpt lat="40.8220401" lon="14.8550325"><ele>513.0</ele><time>2026-04-25T12:15:41.019Z</time></trkpt><trkpt lat="40.8219737" lon="14.8550009"><ele>513.0000000000001</ele><time>2026-04-25T12:15:48.045Z</time></trkpt><trkpt lat="40.8219014" lon="14.8549874"><ele>513.0</ele><time>2026-04-25T12:15:54.054Z</time></trkpt><trkpt lat="40.8218226" lon="14.8549571"><ele>514.0000000000001</ele><time>2026-04-25T12:15:59.042Z</time></trkpt><trkpt lat="40.8217523" lon="14.8549589"><ele>515.0</ele><time>2026-04-25T12:16:14.019Z</time></trkpt><trkpt lat="40.8216853" lon="14.8549579"><ele>516.0</ele><time>2026-04-25T12:16:19.023Z</time></trkpt><trkpt lat="40.8216239" lon="14.8549303"><ele>517.0</ele><time>2026-04-25T12:16:27.019Z</time></trkpt><trkpt lat="40.821624" lon="14.8548359"><ele>518.0</ele><time>2026-04-25T12:16:34.058Z</time></trkpt><trkpt lat="40.8215755" lon="14.8547804"><ele>519.0000000000001</ele><time>2026-04-25T12:16:41.011Z</time></trkpt><trkpt lat="40.8215228" lon="14.8548395"><ele>520.0</ele><time>2026-04-25T12:16:49.019Z</time></trkpt><trkpt lat="40.821475" lon="14.8549103"><ele>520.0000000000001</ele><time>2026-04-25T12:16:55.028Z</time></trkpt><trkpt lat="40.8214237" lon="14.8549699"><ele>520.0</ele><time>2026-04-25T12:17:00.773Z</time></trkpt><trkpt lat="40.8213638" lon="14.8549303"><ele>520.0</ele><time>2026-04-25T12:17:10.048Z</time></trkpt><trkpt lat="40.8213005" lon="14.8549332"><ele>520.0</ele><time>2026-04-25T12:17:19.021Z</time></trkpt><trkpt lat="40.8212322" lon="14.8549142"><ele>520.0</ele><time>2026-04-25T12:17:40.018Z</time></trkpt><trkpt lat="40.8211697" lon="14.8548974"><ele>520.0000000000001</ele><time>2026-04-25T12:17:52.019Z</time></trkpt><trkpt lat="40.8211198" lon="14.8548349"><ele>520.0</ele><time>2026-04-25T12:18:11.017Z</time></trkpt><trkpt lat="40.8210593" lon="14.8547725"><ele>520.0000000000001</ele><time>2026-04-25T12:18:17.038Z</time></trkpt><trkpt lat="40.8209927" lon="14.8548085"><ele>520.0</ele><time>2026-04-25T12:18:22.018Z</time></trkpt><trkpt lat="40.8209307" lon="14.854851"><ele>520.0</ele><time>2026-04-25T12:18:29.041Z</time></trkpt><trkpt lat="40.8208833" lon="14.8549263"><ele>520.0</ele><time>2026-04-25T12:18:35.032Z</time></trkpt><trkpt lat="40.8208187" lon="14.854925"><ele>520.0</ele><time>2026-04-25T12:18:40.037Z</time></trkpt><trkpt lat="40.8207487" lon="14.8549097"><ele>520.0000000000001</ele><time>2026-04-25T12:18:48.017Z</time></trkpt><trkpt lat="40.8206869" lon="14.8548805"><ele>520.0</ele><time>2026-04-25T12:18:57.017Z</time></trkpt><trkpt lat="40.8206191" lon="14.8548512"><ele>523.1428571428572</ele><time>2026-04-25T12:19:03.032Z</time></trkpt><trkpt lat="40.8205651" lon="14.8548004"><ele>526.2857142857143</ele><time>2026-04-25T12:19:10.07Z</time></trkpt><trkpt lat="40.8205064" lon="14.8547554"><ele>529.4285714285714</ele><time>2026-04-25T12:19:16.042Z</time></trkpt><trkpt lat="40.8204366" lon="14.8547622"><ele>532.5714285714287</ele><time>2026-04-25T12:19:22.018Z</time></trkpt><trkpt lat="40.8203883" lon="14.8548255"><ele>535.7142857142858</ele><time>2026-04-25T12:19:27.036Z</time></trkpt><trkpt lat="40.8203242" lon="14.8548398"><ele>538.8571428571429</ele><time>2026-04-25T12:19:33.017Z</time></trkpt><trkpt lat="40.8202601" lon="14.8548431"><ele>542.0</ele><time>2026-04-25T12:19:40.045Z</time></trkpt><trkpt lat="40.8201946" lon="14.8548753"><ele>544.5714285714286</ele><time>2026-04-25T12:20:21.017Z</time></trkpt><trkpt lat="40.820128" lon="14.854855"><ele>547.1428571428571</ele><time>2026-04-25T12:20:27.017Z</time></trkpt><trkpt lat="40.8200618" lon="14.8548571"><ele>549.7142857142858</ele><time>2026-04-25T12:20:34.026Z</time></trkpt><trkpt lat="40.8199975" lon="14.8548813"><ele>552.2857142857142</ele><time>2026-04-25T12:20:40.017Z</time></trkpt><trkpt lat="40.8199318" lon="14.8548747"><ele>554.8571428571429</ele><time>2026-04-25T12:20:46.992Z</time></trkpt><trkpt lat="40.8198662" lon="14.8548937"><ele>557.4285714285714</ele><time>2026-04-25T12:20:53.986Z</time></trkpt><trkpt lat="40.8198011" lon="14.8548598"><ele>560.0</ele><time>2026-04-25T12:21:03.017Z</time></trkpt><trkpt lat="40.8197393" lon="14.8548382"><ele>560.0</ele><time>2026-04-25T12:21:11.036Z</time></trkpt><trkpt lat="40.8197015" lon="14.8547691"><ele>560.0</ele><time>2026-04-25T12:21:22.031Z</time></trkpt><trkpt lat="40.8196416" lon="14.854722"><ele>560.0</ele><time>2026-04-25T12:21:40.017Z</time></trkpt><trkpt lat="40.8195758" lon="14.8547398"><ele>560.0</ele><time>2026-04-25T12:21:47.042Z</time></trkpt><trkpt lat="40.8195133" lon="14.8546789"><ele>560.0</ele><time>2026-04-25T12:22:18.018Z</time></trkpt><trkpt lat="40.8194662" lon="14.8546097"><ele>560.0</ele><time>2026-04-25T12:22:23.042Z</time></trkpt><trkpt lat="40.8194265" lon="14.8545417"><ele>560.0</ele><time>2026-04-25T12:22:28.018Z</time></trkpt><trkpt lat="40.81936" lon="14.8545145"><ele>560.5714285714286</ele><time>2026-04-25T12:22:36.05Z</time></trkpt><trkpt lat="40.8192984" lon="14.8544757"><ele>561.1428571428571</ele><time>2026-04-25T12:22:42.115Z</time></trkpt><trkpt lat="40.8192539" lon="14.8544119"><ele>561.7142857142858</ele><time>2026-04-25T12:22:51.019Z</time></trkpt><trkpt lat="40.8192028" lon="14.8543605"><ele>562.2857142857142</ele><time>2026-04-25T12:22:59.031Z</time></trkpt><trkpt lat="40.819144" lon="14.8543197"><ele>562.8571428571429</ele><time>2026-04-25T12:23:07.019Z</time></trkpt><trkpt lat="40.8191049" lon="14.8542462"><ele>563.4285714285714</ele><time>2026-04-25T12:23:24.022Z</time></trkpt><trkpt lat="40.8190604" lon="14.8541738"><ele>564.0</ele><time>2026-04-25T12:23:31.064Z</time></trkpt><trkpt lat="40.8190481" lon="14.8540919"><ele>564.0</ele><time>2026-04-25T12:23:37.02Z</time></trkpt><trkpt lat="40.8190073" lon="14.8540158"><ele>564.0</ele><time>2026-04-25T12:24:16.055Z</time></trkpt><trkpt lat="40.8189588" lon="14.8539492"><ele>564.0</ele><time>2026-04-25T12:24:21.031Z</time></trkpt><trkpt lat="40.8188972" lon="14.8539215"><ele>564.0</ele><time>2026-04-25T12:24:28.02Z</time></trkpt><trkpt lat="40.8188531" lon="14.8538604"><ele>564.0</ele><time>2026-04-25T12:24:32.976Z</time></trkpt><trkpt lat="40.8188634" lon="14.8537758"><ele>564.0</ele><time>2026-04-25T12:24:41.073Z</time></trkpt><trkpt lat="40.8188983" lon="14.8536859"><ele>564.0</ele><time>2026-04-25T12:24:47.019Z</time></trkpt><trkpt lat="40.8189174" lon="14.8536002"><ele>564.0</ele><time>2026-04-25T12:24:53.011Z</time></trkpt><trkpt lat="40.8188907" lon="14.8535199"><ele>564.0</ele><time>2026-04-25T12:25:00.047Z</time></trkpt><trkpt lat="40.8188289" lon="14.853481"><ele>564.0</ele><time>2026-04-25T12:25:07.935Z</time></trkpt><trkpt lat="40.8187744" lon="14.8534338"><ele>564.0</ele><time>2026-04-25T12:25:14.02Z</time></trkpt><trkpt lat="40.8186984" lon="14.8534435"><ele>564.0</ele><time>2026-04-25T12:25:22.066Z</time></trkpt><trkpt lat="40.8186463" lon="14.8534922"><ele>564.0</ele><time>2026-04-25T12:25:27.094Z</time></trkpt><trkpt lat="40.8185678" lon="14.8535281"><ele>564.0</ele><time>2026-04-25T12:25:34.042Z</time></trkpt><trkpt lat="40.8185052" lon="14.8535737"><ele>565.4285714285714</ele><time>2026-04-25T12:25:41.02Z</time></trkpt><trkpt lat="40.8184434" lon="14.853627"><ele>566.8571428571429</ele><time>2026-04-25T12:25:59.055Z</time></trkpt><trkpt lat="40.8184148" lon="14.8537112"><ele>568.2857142857142</ele><time>2026-04-25T12:26:02.193Z</time></trkpt><trkpt lat="40.8184316" lon="14.8538021"><ele>569.7142857142858</ele><time>2026-04-25T12:26:05.654Z</time></trkpt><trkpt lat="40.8184211" lon="14.8538857"><ele>571.1428571428571</ele><time>2026-04-25T12:26:11.033Z</time></trkpt><trkpt lat="40.8183885" lon="14.8539671"><ele>572.5714285714286</ele><time>2026-04-25T12:26:18.054Z</time></trkpt><trkpt lat="40.8183561" lon="14.8540594"><ele>574.0</ele><time>2026-04-25T12:26:23.97Z</time></trkpt><trkpt lat="40.8183201" lon="14.8541667"><ele>574.0</ele><time>2026-04-25T12:26:30.02Z</time></trkpt><trkpt lat="40.8182787" lon="14.8542378"><ele>574.0</ele><time>2026-04-25T12:26:34.026Z</time></trkpt><trkpt lat="40.8182093" lon="14.8542646"><ele>574.0</ele><time>2026-04-25T12:26:41.994Z</time></trkpt><trkpt lat="40.8181395" lon="14.8542772"><ele>574.0</ele><time>2026-04-25T12:26:50.019Z</time></trkpt><trkpt lat="40.8180845" lon="14.8543211"><ele>574.0</ele><time>2026-04-25T12:26:56.022Z</time></trkpt><trkpt lat="40.8180246" lon="14.8543666"><ele>574.0</ele><time>2026-04-25T12:27:07.02Z</time></trkpt><trkpt lat="40.8179773" lon="14.8544422"><ele>574.0</ele><time>2026-04-25T12:27:26.019Z</time></trkpt><trkpt lat="40.8179119" lon="14.8544521"><ele>575.0</ele><time>2026-04-25T12:27:32.053Z</time></trkpt><trkpt lat="40.8178451" lon="14.8544132"><ele>576.0</ele><time>2026-04-25T12:27:39.02Z</time></trkpt><trkpt lat="40.8177816" lon="14.8544332"><ele>577.0</ele><time>2026-04-25T12:27:45.069Z</time></trkpt><trkpt lat="40.8177201" lon="14.8544815"><ele>578.0</ele><time>2026-04-25T12:27:51.019Z</time></trkpt><trkpt lat="40.8176967" lon="14.854564"><ele>579.0</ele><time>2026-04-25T12:27:57.091Z</time></trkpt><trkpt lat="40.8176346" lon="14.8546126"><ele>580.0</ele><time>2026-04-25T12:28:18.035Z</time></trkpt><trkpt lat="40.8176436" lon="14.8546955"><ele>581.0</ele><time>2026-04-25T12:28:25.06Z</time></trkpt><trkpt lat="40.8175952" lon="14.8547843"><ele>582.8571428571429</ele><time>2026-04-25T12:28:43.019Z</time></trkpt><trkpt lat="40.8175758" lon="14.854866"><ele>584.7142857142858</ele><time>2026-04-25T12:28:50.05Z</time></trkpt><trkpt lat="40.8175534" lon="14.8549508"><ele>586.5714285714286</ele><time>2026-04-25T12:29:13.019Z</time></trkpt><trkpt lat="40.8175368" lon="14.8550408"><ele>588.4285714285714</ele><time>2026-04-25T12:29:21.019Z</time></trkpt><trkpt lat="40.8175785" lon="14.8551051"><ele>590.2857142857143</ele><time>2026-04-25T12:29:39.019Z</time></trkpt><trkpt lat="40.8175131" lon="14.8550903"><ele>592.1428571428571</ele><time>2026-04-25T12:29:57.051Z</time></trkpt><trkpt lat="40.8174412" lon="14.8550873"><ele>594.0</ele><time>2026-04-25T12:30:20.03Z</time></trkpt><trkpt lat="40.8173664" lon="14.8550661"><ele>594.0</ele><time>2026-04-25T12:30:27.018Z</time></trkpt><trkpt lat="40.8173021" lon="14.8550933"><ele>594.0</ele><time>2026-04-25T12:30:31.933Z</time></trkpt><trkpt lat="40.8172497" lon="14.8551428"><ele>594.0</ele><time>2026-04-25T12:30:38.991Z</time></trkpt><trkpt lat="40.8171933" lon="14.8551819"><ele>594.0</ele><time>2026-04-25T12:30:45.994Z</time></trkpt><trkpt lat="40.8171418" lon="14.8552336"><ele>594.0</ele><time>2026-04-25T12:30:52.075Z</time></trkpt><trkpt lat="40.8170956" lon="14.8552979"><ele>594.0</ele><time>2026-04-25T12:31:03.029Z</time></trkpt><trkpt lat="40.8170558" lon="14.8553738"><ele>594.0</ele><time>2026-04-25T12:31:23.08Z</time></trkpt><trkpt lat="40.816995" lon="14.8554007"><ele>596.1428571428571</ele><time>2026-04-25T12:31:29.029Z</time></trkpt><trkpt lat="40.8169254" lon="14.8554188"><ele>598.2857142857143</ele><time>2026-04-25T12:31:36.034Z</time></trkpt><trkpt lat="40.8168578" lon="14.8554144"><ele>600.4285714285714</ele><time>2026-04-25T12:31:42.03Z</time></trkpt><trkpt lat="40.8168089" lon="14.8554678"><ele>602.5714285714286</ele><time>2026-04-25T12:31:48.019Z</time></trkpt><trkpt lat="40.8167653" lon="14.8555314"><ele>604.7142857142858</ele><time>2026-04-25T12:31:55.972Z</time></trkpt><trkpt lat="40.8167034" lon="14.855583"><ele>606.8571428571429</ele><time>2026-04-25T12:32:27.014Z</time></trkpt><trkpt lat="40.8166417" lon="14.8556025"><ele>609.0</ele><time>2026-04-25T12:32:33.993Z</time></trkpt><trkpt lat="40.8165879" lon="14.8556597"><ele>610.5714285714286</ele><time>2026-04-25T12:32:44.038Z</time></trkpt><trkpt lat="40.8165229" lon="14.8556929"><ele>612.1428571428571</ele><time>2026-04-25T12:32:52.019Z</time></trkpt><trkpt lat="40.8164556" lon="14.8557219"><ele>613.7142857142858</ele><time>2026-04-25T12:33:02.018Z</time></trkpt><trkpt lat="40.8163979" lon="14.8557599"><ele>615.2857142857142</ele><time>2026-04-25T12:33:12.018Z</time></trkpt><trkpt lat="40.8163312" lon="14.8557923"><ele>616.8571428571429</ele><time>2026-04-25T12:33:19.025Z</time></trkpt><trkpt lat="40.8162838" lon="14.8558545"><ele>618.4285714285714</ele><time>2026-04-25T12:33:36.054Z</time></trkpt><trkpt lat="40.8162217" lon="14.8558852"><ele>620.0</ele><time>2026-04-25T12:33:43.019Z</time></trkpt><trkpt lat="40.8161736" lon="14.8559481"><ele>620.0</ele><time>2026-04-25T12:33:48.053Z</time></trkpt><trkpt lat="40.8161072" lon="14.8559272"><ele>620.0</ele><time>2026-04-25T12:33:55.018Z</time></trkpt><trkpt lat="40.8160853" lon="14.8560137"><ele>620.0</ele><time>2026-04-25T12:34:34.044Z</time></trkpt><trkpt lat="40.8160355" lon="14.8560709"><ele>620.0</ele><time>2026-04-25T12:34:39.018Z</time></trkpt><trkpt lat="40.8159714" lon="14.8561015"><ele>620.0</ele><time>2026-04-25T12:34:44.035Z</time></trkpt><trkpt lat="40.8159005" lon="14.8561183"><ele>620.0</ele><time>2026-04-25T12:34:51.019Z</time></trkpt><trkpt lat="40.8158344" lon="14.8561611"><ele>620.0</ele><time>2026-04-25T12:35:01.067Z</time></trkpt><trkpt lat="40.8157686" lon="14.8561526"><ele>623.1428571428571</ele><time>2026-04-25T12:35:14.019Z</time></trkpt><trkpt lat="40.8157034" lon="14.8561374"><ele>626.2857142857142</ele><time>2026-04-25T12:35:27.019Z</time></trkpt><trkpt lat="40.8156484" lon="14.8560763"><ele>629.4285714285713</ele><time>2026-04-25T12:35:37.01Z</time></trkpt><trkpt lat="40.8155957" lon="14.8561254"><ele>632.5714285714286</ele><time>2026-04-25T12:35:42.019Z</time></trkpt><trkpt lat="40.8155605" lon="14.8561992"><ele>635.7142857142857</ele><time>2026-04-25T12:35:47.99Z</time></trkpt><trkpt lat="40.8155203" lon="14.8562641"><ele>638.8571428571428</ele><time>2026-04-25T12:35:57.032Z</time></trkpt><trkpt lat="40.8154536" lon="14.8562912"><ele>642.0</ele><time>2026-04-25T12:36:07.018Z</time></trkpt><trkpt lat="40.8153889" lon="14.8563287"><ele>641.9999999999999</ele><time>2026-04-25T12:36:24.017Z</time></trkpt><trkpt lat="40.8153302" lon="14.8563788"><ele>642.0</ele><time>2026-04-25T12:36:32.972Z</time></trkpt><trkpt lat="40.8152593" lon="14.8563539"><ele>642.0</ele><time>2026-04-25T12:37:17.933Z</time></trkpt><trkpt lat="40.8151887" lon="14.8563308"><ele>642.0</ele><time>2026-04-25T12:37:22.948Z</time></trkpt><trkpt lat="40.8151148" lon="14.8563518"><ele>642.0</ele><time>2026-04-25T12:37:30.053Z</time></trkpt><trkpt lat="40.8150644" lon="14.8564122"><ele>641.9999999999999</ele><time>2026-04-25T12:37:39.03Z</time></trkpt><trkpt lat="40.8150053" lon="14.856447"><ele>642.0</ele><time>2026-04-25T12:37:52.044Z</time></trkpt><trkpt lat="40.8149566" lon="14.8563903"><ele>643.8571428571428</ele><time>2026-04-25T12:38:02.031Z</time></trkpt><trkpt lat="40.8148848" lon="14.8563889"><ele>645.7142857142857</ele><time>2026-04-25T12:38:08.017Z</time></trkpt><trkpt lat="40.814821" lon="14.8563581"><ele>647.5714285714286</ele><time>2026-04-25T12:38:16.017Z</time></trkpt><trkpt lat="40.8147558" lon="14.8563422"><ele>649.4285714285713</ele><time>2026-04-25T12:38:24.029Z</time></trkpt><trkpt lat="40.8146799" lon="14.856354"><ele>651.2857142857142</ele><time>2026-04-25T12:38:31.018Z</time></trkpt><trkpt lat="40.8146173" lon="14.856384"><ele>653.1428571428571</ele><time>2026-04-25T12:38:36.042Z</time></trkpt><trkpt lat="40.8145521" lon="14.8563605"><ele>655.0</ele><time>2026-04-25T12:38:51.017Z</time></trkpt><trkpt lat="40.8145023" lon="14.8564192"><ele>655.0</ele><time>2026-04-25T12:39:00.017Z</time></trkpt><trkpt lat="40.8144306" lon="14.8564182"><ele>655.0</ele><time>2026-04-25T12:39:08.019Z</time></trkpt><trkpt lat="40.8143623" lon="14.8564256"><ele>655.0</ele><time>2026-04-25T12:39:24.017Z</time></trkpt><trkpt lat="40.8142889" lon="14.8564134"><ele>655.0</ele><time>2026-04-25T12:39:31.018Z</time></trkpt><trkpt lat="40.814223" lon="14.8564163"><ele>655.0</ele><time>2026-04-25T12:39:37.062Z</time></trkpt><trkpt lat="40.8141497" lon="14.856425"><ele>655.0</ele><time>2026-04-25T12:39:44.037Z</time></trkpt><trkpt lat="40.8141066" lon="14.8563634"><ele>655.0</ele><time>2026-04-25T12:39:51.018Z</time></trkpt><trkpt lat="40.8140397" lon="14.8563226"><ele>657.7142857142858</ele><time>2026-04-25T12:39:57.975Z</time></trkpt><trkpt lat="40.8139927" lon="14.8562623"><ele>660.4285714285714</ele><time>2026-04-25T12:40:28.055Z</time></trkpt><trkpt lat="40.813928" lon="14.8562581"><ele>663.1428571428571</ele><time>2026-04-25T12:40:34.017Z</time></trkpt><trkpt lat="40.8138613" lon="14.8562617"><ele>665.8571428571429</ele><time>2026-04-25T12:40:43.017Z</time></trkpt><trkpt lat="40.8138083" lon="14.8563339"><ele>668.5714285714286</ele><time>2026-04-25T12:41:08.048Z</time></trkpt><trkpt lat="40.8137749" lon="14.8564124"><ele>671.2857142857143</ele><time>2026-04-25T12:41:13.017Z</time></trkpt><trkpt lat="40.8137696" lon="14.8563224"><ele>674.0</ele><time>2026-04-25T12:41:48.039Z</time></trkpt><trkpt lat="40.8137197" lon="14.8562579"><ele>674.0000000000001</ele><time>2026-04-25T12:42:03.017Z</time></trkpt><trkpt lat="40.8136491" lon="14.85624"><ele>674.0</ele><time>2026-04-25T12:42:10.018Z</time></trkpt><trkpt lat="40.8135685" lon="14.8562754"><ele>674.0</ele><time>2026-04-25T12:42:22.965Z</time></trkpt><trkpt lat="40.8135042" lon="14.856284"><ele>674.0</ele><time>2026-04-25T12:42:28.068Z</time></trkpt><trkpt lat="40.8134364" lon="14.856307"><ele>674.0</ele><time>2026-04-25T12:42:35.017Z</time></trkpt><trkpt lat="40.813384" lon="14.8563608"><ele>674.0000000000001</ele><time>2026-04-25T12:42:48.017Z</time></trkpt><trkpt lat="40.8133321" lon="14.8564295"><ele>674.0</ele><time>2026-04-25T12:43:33.016Z</time></trkpt><trkpt lat="40.8132706" lon="14.8564659"><ele>674.0000000000001</ele><time>2026-04-25T12:43:40.031Z</time></trkpt><trkpt lat="40.8133347" lon="14.8565137"><ele>674.0</ele><time>2026-04-25T12:43:55.016Z</time></trkpt><trkpt lat="40.8134039" lon="14.8565164"><ele>674.0</ele><time>2026-04-25T12:44:00.03Z</time></trkpt><trkpt lat="40.8134726" lon="14.8565136"><ele>674.0</ele><time>2026-04-25T12:44:05.017Z</time></trkpt><trkpt lat="40.813533" lon="14.8564662"><ele>674.0</ele><time>2026-04-25T12:44:12.043Z</time></trkpt><trkpt lat="40.8135959" lon="14.8564886"><ele>674.0000000000001</ele><time>2026-04-25T12:44:17.017Z</time></trkpt><trkpt lat="40.813671" lon="14.8564873"><ele>674.0</ele><time>2026-04-25T12:44:22.026Z</time></trkpt><trkpt lat="40.8137313" lon="14.8565114"><ele>674.0000000000001</ele><time>2026-04-25T12:44:27.017Z</time></trkpt><trkpt lat="40.8138088" lon="14.8565256"><ele>674.0</ele><time>2026-04-25T12:44:32.028Z</time></trkpt><trkpt lat="40.8138739" lon="14.8565684"><ele>674.0</ele><time>2026-04-25T12:44:38.016Z</time></trkpt><trkpt lat="40.8139411" lon="14.8565912"><ele>674.0</ele><time>2026-04-25T12:44:44.039Z</time></trkpt><trkpt lat="40.814016" lon="14.8565846"><ele>674.0</ele><time>2026-04-25T12:44:49.974Z</time></trkpt><trkpt lat="40.8140653" lon="14.8566465"><ele>674.0000000000001</ele><time>2026-04-25T12:44:55.043Z</time></trkpt><trkpt lat="40.8141269" lon="14.8566183"><ele>674.0</ele><time>2026-04-25T12:47:46.017Z</time></trkpt><trkpt lat="40.8141891" lon="14.8566383"><ele>674.0000000000001</ele><time>2026-04-25T12:47:55.037Z</time></trkpt><trkpt lat="40.8142349" lon="14.8567024"><ele>674.0</ele><time>2026-04-25T12:48:05.017Z</time></trkpt><trkpt lat="40.8142983" lon="14.8567406"><ele>674.0</ele><time>2026-04-25T12:48:16.017Z</time></trkpt><trkpt lat="40.8143509" lon="14.8567892"><ele>674.0</ele><time>2026-04-25T12:48:23.018Z</time></trkpt><trkpt lat="40.8143918" lon="14.856855"><ele>674.0</ele><time>2026-04-25T12:48:35.997Z</time></trkpt><trkpt lat="40.8144529" lon="14.8568809"><ele>674.0000000000001</ele><time>2026-04-25T12:48:45.017Z</time></trkpt><trkpt lat="40.8144851" lon="14.8569624"><ele>674.0</ele><time>2026-04-25T12:48:53.017Z</time></trkpt><trkpt lat="40.8145235" lon="14.8570286"><ele>674.0000000000001</ele><time>2026-04-25T12:49:09.017Z</time></trkpt><trkpt lat="40.8144554" lon="14.8570052"><ele>674.0</ele><time>2026-04-25T12:49:58.042Z</time></trkpt><trkpt lat="40.8143925" lon="14.8570235"><ele>674.0</ele><time>2026-04-25T12:50:05.016Z</time></trkpt><trkpt lat="40.8143295" lon="14.8570394"><ele>674.0</ele><time>2026-04-25T12:50:13.016Z</time></trkpt><trkpt lat="40.8142655" lon="14.8570196"><ele>674.0</ele><time>2026-04-25T12:50:21.031Z</time></trkpt><trkpt lat="40.8142093" lon="14.8570725"><ele>674.0000000000001</ele><time>2026-04-25T12:50:28.092Z</time></trkpt><trkpt lat="40.8141421" lon="14.8570645"><ele>674.0</ele><time>2026-04-25T12:50:39.015Z</time></trkpt><trkpt lat="40.8140723" lon="14.8570488"><ele>676.4285714285714</ele><time>2026-04-25T12:51:00.036Z</time></trkpt><trkpt lat="40.814006" lon="14.8570563"><ele>678.8571428571429</ele><time>2026-04-25T12:51:10.015Z</time></trkpt><trkpt lat="40.8139247" lon="14.8570535"><ele>681.2857142857142</ele><time>2026-04-25T12:51:20.016Z</time></trkpt><trkpt lat="40.8138537" lon="14.8570541"><ele>683.7142857142858</ele><time>2026-04-25T12:51:28.016Z</time></trkpt><trkpt lat="40.8137872" lon="14.8570365"><ele>686.1428571428571</ele><time>2026-04-25T12:51:36.016Z</time></trkpt><trkpt lat="40.813726" lon="14.8570752"><ele>688.5714285714286</ele><time>2026-04-25T12:51:45.059Z</time></trkpt><trkpt lat="40.8136586" lon="14.8570794"><ele>691.0</ele><time>2026-04-25T12:52:01.021Z</time></trkpt><trkpt lat="40.8135991" lon="14.8571095"><ele>690.9999999999999</ele><time>2026-04-25T12:52:11.016Z</time></trkpt><trkpt lat="40.8135338" lon="14.8570922"><ele>691.0</ele><time>2026-04-25T12:52:22.051Z</time></trkpt><trkpt lat="40.8135" lon="14.8571679"><ele>691.0</ele><time>2026-04-25T12:52:33.016Z</time></trkpt><trkpt lat="40.8134465" lon="14.8572208"><ele>691.0</ele><time>2026-04-25T12:53:01.015Z</time></trkpt><trkpt lat="40.8134105" lon="14.8572969"><ele>691.0</ele><time>2026-04-25T12:53:15.015Z</time></trkpt><trkpt lat="40.8133599" lon="14.8573718"><ele>690.9999999999999</ele><time>2026-04-25T12:53:20.016Z</time></trkpt><trkpt lat="40.8132996" lon="14.8574006"><ele>691.0</ele><time>2026-04-25T12:53:28.016Z</time></trkpt><trkpt lat="40.8132368" lon="14.8574383"><ele>693.8571428571428</ele><time>2026-04-25T12:53:43.055Z</time></trkpt><trkpt lat="40.8131827" lon="14.857382"><ele>696.7142857142857</ele><time>2026-04-25T12:54:02.016Z</time></trkpt><trkpt lat="40.8131392" lon="14.8574429"><ele>699.5714285714286</ele><time>2026-04-25T12:54:12.848Z</time></trkpt><trkpt lat="40.8130763" lon="14.8574114"><ele>702.4285714285713</ele><time>2026-04-25T12:54:22.016Z</time></trkpt><trkpt lat="40.8130042" lon="14.8574021"><ele>705.2857142857142</ele><time>2026-04-25T12:54:36.075Z</time></trkpt><trkpt lat="40.8129526" lon="14.8573458"><ele>708.1428571428571</ele><time>2026-04-25T12:54:48.015Z</time></trkpt><trkpt lat="40.8128841" lon="14.8573389"><ele>711.0</ele><time>2026-04-25T12:54:56.049Z</time></trkpt><trkpt lat="40.812825" lon="14.8573693"><ele>711.0</ele><time>2026-04-25T12:55:07.016Z</time></trkpt><trkpt lat="40.8127517" lon="14.857343"><ele>711.0</ele><time>2026-04-25T12:55:16.016Z</time></trkpt><trkpt lat="40.812691" lon="14.8573036"><ele>711.0</ele><time>2026-04-25T12:55:25.038Z</time></trkpt><trkpt lat="40.8127316" lon="14.8573716"><ele>711.0</ele><time>2026-04-25T12:55:37.022Z</time></trkpt><trkpt lat="40.8127215" lon="14.857457"><ele>711.0</ele><time>2026-04-25T12:55:49.015Z</time></trkpt><trkpt lat="40.8126885" lon="14.8575328"><ele>711.0</ele><time>2026-04-25T12:56:02.014Z</time></trkpt><trkpt lat="40.8126301" lon="14.8575859"><ele>711.0</ele><time>2026-04-25T12:58:33.034Z</time></trkpt><trkpt lat="40.8125608" lon="14.8576091"><ele>712.5714285714286</ele><time>2026-04-25T12:58:40.027Z</time></trkpt><trkpt lat="40.812496" lon="14.8576156"><ele>714.1428571428571</ele><time>2026-04-25T12:58:46.038Z</time></trkpt><trkpt lat="40.8124322" lon="14.8576442"><ele>715.7142857142858</ele><time>2026-04-25T12:59:01.054Z</time></trkpt><trkpt lat="40.8123672" lon="14.8576383"><ele>717.2857142857142</ele><time>2026-04-25T12:59:20.015Z</time></trkpt><trkpt lat="40.8123007" lon="14.8576689"><ele>718.8571428571428</ele><time>2026-04-25T12:59:32.014Z</time></trkpt><trkpt lat="40.8122401" lon="14.8576978"><ele>720.4285714285714</ele><time>2026-04-25T12:59:42.024Z</time></trkpt><trkpt lat="40.812171" lon="14.8576711"><ele>722.0</ele><time>2026-04-25T12:59:48.015Z</time></trkpt><trkpt lat="40.8121058" lon="14.8577021"><ele>726.4285714285714</ele><time>2026-04-25T12:59:54.014Z</time></trkpt><trkpt lat="40.8120838" lon="14.857787"><ele>730.8571428571428</ele><time>2026-04-25T13:00:01.004Z</time></trkpt><trkpt lat="40.8120368" lon="14.8578437"><ele>735.2857142857142</ele><time>2026-04-25T13:00:07.987Z</time></trkpt><trkpt lat="40.8119738" lon="14.8578696"><ele>739.7142857142858</ele><time>2026-04-25T13:00:18.015Z</time></trkpt><trkpt lat="40.8119134" lon="14.8579023"><ele>744.1428571428571</ele><time>2026-04-25T13:00:25.02Z</time></trkpt><trkpt lat="40.8118505" lon="14.8579382"><ele>748.5714285714286</ele><time>2026-04-25T13:00:31.015Z</time></trkpt><trkpt lat="40.8117827" lon="14.8579644"><ele>753.0</ele><time>2026-04-25T13:00:37.015Z</time></trkpt><trkpt lat="40.8117103" lon="14.8579609"><ele>754.1428571428571</ele><time>2026-04-25T13:00:44.092Z</time></trkpt><trkpt lat="40.8116392" lon="14.8579919"><ele>755.2857142857143</ele><time>2026-04-25T13:00:54.016Z</time></trkpt><trkpt lat="40.8115734" lon="14.8579883"><ele>756.4285714285713</ele><time>2026-04-25T13:01:02.015Z</time></trkpt><trkpt lat="40.8115684" lon="14.8580751"><ele>757.5714285714286</ele><time>2026-04-25T13:01:11.03Z</time></trkpt><trkpt lat="40.8115121" lon="14.8581197"><ele>758.7142857142857</ele><time>2026-04-25T13:01:25.026Z</time></trkpt><trkpt lat="40.8114454" lon="14.8581229"><ele>759.8571428571428</ele><time>2026-04-25T13:01:38.016Z</time></trkpt><trkpt lat="40.8113819" lon="14.8581075"><ele>761.0</ele><time>2026-04-25T13:01:46.014Z</time></trkpt><trkpt lat="40.8113506" lon="14.858197"><ele>760.9999999999999</ele><time>2026-04-25T13:02:07.018Z</time></trkpt><trkpt lat="40.8112985" lon="14.8581436"><ele>761.0</ele><time>2026-04-25T13:02:15.07Z</time></trkpt><trkpt lat="40.8112345" lon="14.858123"><ele>761.0</ele><time>2026-04-25T13:02:26.053Z</time></trkpt><trkpt lat="40.8111661" lon="14.8581387"><ele>761.0</ele><time>2026-04-25T13:02:50.013Z</time></trkpt><trkpt lat="40.8111224" lon="14.8581996"><ele>761.0</ele><time>2026-04-25T13:02:57.028Z</time></trkpt><trkpt lat="40.8110619" lon="14.8582271"><ele>760.9999999999999</ele><time>2026-04-25T13:03:05.059Z</time></trkpt><trkpt lat="40.8110023" lon="14.8582823"><ele>761.0</ele><time>2026-04-25T13:03:19.013Z</time></trkpt><trkpt lat="40.8109336" lon="14.8582661"><ele>762.5714285714286</ele><time>2026-04-25T13:03:30.006Z</time></trkpt><trkpt lat="40.8109167" lon="14.8583535"><ele>764.1428571428571</ele><time>2026-04-25T13:03:43.013Z</time></trkpt><trkpt lat="40.8108552" lon="14.858329"><ele>765.7142857142858</ele><time>2026-04-25T13:03:55.052Z</time></trkpt><trkpt lat="40.8107899" lon="14.8582862"><ele>767.2857142857142</ele><time>2026-04-25T13:04:02.013Z</time></trkpt><trkpt lat="40.8107033" lon="14.8583546"><ele>768.8571428571429</ele><time>2026-04-25T13:04:35.014Z</time></trkpt><trkpt lat="40.8106496" lon="14.8584071"><ele>770.4285714285714</ele><time>2026-04-25T13:04:46.014Z</time></trkpt><trkpt lat="40.8106015" lon="14.8584677"><ele>772.0</ele><time>2026-04-25T13:05:03.014Z</time></trkpt><trkpt lat="40.8105419" lon="14.8585046"><ele>774.7142857142858</ele><time>2026-04-25T13:05:09.029Z</time></trkpt><trkpt lat="40.8104999" lon="14.8585815"><ele>777.4285714285714</ele><time>2026-04-25T13:05:25.029Z</time></trkpt><trkpt lat="40.8104314" lon="14.8585696"><ele>780.1428571428571</ele><time>2026-04-25T13:05:32.951Z</time></trkpt><trkpt lat="40.8103765" lon="14.8586222"><ele>782.8571428571429</ele><time>2026-04-25T13:05:43.04Z</time></trkpt><trkpt lat="40.8103258" lon="14.8586753"><ele>785.5714285714286</ele><time>2026-04-25T13:05:50.014Z</time></trkpt><trkpt lat="40.8102592" lon="14.8586895"><ele>788.2857142857143</ele><time>2026-04-25T13:06:10.014Z</time></trkpt><trkpt lat="40.8101978" lon="14.8587308"><ele>791.0</ele><time>2026-04-25T13:06:16.99Z</time></trkpt><trkpt lat="40.810145" lon="14.8587825"><ele>791.0</ele><time>2026-04-25T13:06:29.014Z</time></trkpt><trkpt lat="40.8101031" lon="14.8588619"><ele>791.0</ele><time>2026-04-25T13:06:36.013Z</time></trkpt><trkpt lat="40.8101411" lon="14.8589373"><ele>791.0</ele><time>2026-04-25T13:06:43.014Z</time></trkpt><trkpt lat="40.8101408" lon="14.8590216"><ele>791.0</ele><time>2026-04-25T13:06:51.044Z</time></trkpt><trkpt lat="40.8100893" lon="14.8590794"><ele>791.0</ele><time>2026-04-25T13:06:57.014Z</time></trkpt><trkpt lat="40.8100284" lon="14.8591212"><ele>791.0</ele><time>2026-04-25T13:07:06.03Z</time></trkpt><trkpt lat="40.8099518" lon="14.8591318"><ele>791.0</ele><time>2026-04-25T13:07:28.046Z</time></trkpt><trkpt lat="40.8098983" lon="14.859185"><ele>791.0</ele><time>2026-04-25T13:07:32.075Z</time></trkpt><trkpt lat="40.809856" lon="14.8592489"><ele>791.0</ele><time>2026-04-25T13:07:37.953Z</time></trkpt><trkpt lat="40.8098187" lon="14.8593331"><ele>791.0</ele><time>2026-04-25T13:07:50.013Z</time></trkpt><trkpt lat="40.8097863" lon="14.8594101"><ele>791.0</ele><time>2026-04-25T13:07:57.03Z</time></trkpt><trkpt lat="40.8097533" lon="14.8594934"><ele>791.0</ele><time>2026-04-25T13:08:23.014Z</time></trkpt><trkpt lat="40.8097165" lon="14.8595692"><ele>791.0</ele><time>2026-04-25T13:08:30.043Z</time></trkpt><trkpt lat="40.809711" lon="14.8596521"><ele>791.0</ele><time>2026-04-25T13:08:47.054Z</time></trkpt><trkpt lat="40.809709" lon="14.8597372"><ele>796.3333333333334</ele><time>2026-04-25T13:09:04.063Z</time></trkpt><trkpt lat="40.8096586" lon="14.8598103"><ele>801.6666666666667</ele><time>2026-04-25T13:09:16.052Z</time></trkpt><trkpt lat="40.809593" lon="14.8598585"><ele>807.0</ele><time>2026-04-25T13:09:40.012Z</time></trkpt><trkpt lat="40.8095456" lon="14.8599172"><ele>812.3333333333333</ele><time>2026-04-25T13:10:48.021Z</time></trkpt><trkpt lat="40.8094905" lon="14.8599733"><ele>817.6666666666666</ele><time>2026-04-25T13:11:00.013Z</time></trkpt><trkpt lat="40.8094717" lon="14.8600586"><ele>823.0</ele><time>2026-04-25T13:11:07.012Z</time></trkpt><trkpt lat="40.8094373" lon="14.8601847"><ele>823.0</ele><time>2026-04-25T13:11:32.013Z</time></trkpt><trkpt lat="40.8093659" lon="14.8601075"><ele>823.0</ele><time>2026-04-25T13:12:56.012Z</time></trkpt><trkpt lat="40.8093027" lon="14.860067"><ele>823.0</ele><time>2026-04-25T13:13:01.013Z</time></trkpt><trkpt lat="40.8094601" lon="14.8601722"><ele>823.0</ele><time>2026-04-25T13:13:07.043Z</time></trkpt><trkpt lat="40.8093966" lon="14.8601648"><ele>823.0</ele><time>2026-04-25T13:13:20.013Z</time></trkpt><trkpt lat="40.8093392" lon="14.8602036"><ele>827.4285714285714</ele><time>2026-04-25T13:14:07.012Z</time></trkpt><trkpt lat="40.8092859" lon="14.8602518"><ele>831.8571428571429</ele><time>2026-04-25T13:14:17.013Z</time></trkpt><trkpt lat="40.8092249" lon="14.8602969"><ele>836.2857142857142</ele><time>2026-04-25T13:14:24.042Z</time></trkpt><trkpt lat="40.8091584" lon="14.8603424"><ele>840.7142857142858</ele><time>2026-04-25T13:14:31.013Z</time></trkpt><trkpt lat="40.8090911" lon="14.8603588"><ele>845.1428571428571</ele><time>2026-04-25T13:14:37.012Z</time></trkpt><trkpt lat="40.809028" lon="14.8604054"><ele>849.5714285714286</ele><time>2026-04-25T13:14:42.034Z</time></trkpt><trkpt lat="40.8089669" lon="14.860431"><ele>854.0</ele><time>2026-04-25T13:14:49.013Z</time></trkpt><trkpt lat="40.8089243" lon="14.860494"><ele>854.0</ele><time>2026-04-25T13:15:07.016Z</time></trkpt><trkpt lat="40.8088943" lon="14.8605717"><ele>854.0</ele><time>2026-04-25T13:15:18.054Z</time></trkpt><trkpt lat="40.8088511" lon="14.8606347"><ele>854.0</ele><time>2026-04-25T13:15:25.015Z</time></trkpt><trkpt lat="40.8088173" lon="14.8605617"><ele>854.0</ele><time>2026-04-25T13:16:15.011Z</time></trkpt><trkpt lat="40.8087579" lon="14.8605911"><ele>854.0</ele><time>2026-04-25T13:16:46.012Z</time></trkpt><trkpt lat="40.8087219" lon="14.8606623"><ele>854.0</ele><time>2026-04-25T13:17:17.013Z</time></trkpt><trkpt lat="40.8087034" lon="14.8607555"><ele>854.0</ele><time>2026-04-25T13:17:38.087Z</time></trkpt><trkpt lat="40.8086861" lon="14.8608355"><ele>854.0</ele><time>2026-04-25T13:17:45.039Z</time></trkpt><trkpt lat="40.8086231" lon="14.860878"><ele>854.0</ele><time>2026-04-25T13:17:49.036Z</time></trkpt><trkpt lat="40.8085655" lon="14.8608261"><ele>854.0</ele><time>2026-04-25T13:17:53.012Z</time></trkpt><trkpt lat="40.8085425" lon="14.8609182"><ele>854.0</ele><time>2026-04-25T13:19:16.019Z</time></trkpt><trkpt lat="40.8084932" lon="14.8609787"><ele>854.0</ele><time>2026-04-25T13:19:22.012Z</time></trkpt><trkpt lat="40.8084336" lon="14.8610164"><ele>854.0</ele><time>2026-04-25T13:19:32.011Z</time></trkpt><trkpt lat="40.8083819" lon="14.8610692"><ele>854.0</ele><time>2026-04-25T13:19:53.018Z</time></trkpt><trkpt lat="40.8083064" lon="14.8610964"><ele>858.1428571428571</ele><time>2026-04-25T13:20:17.938Z</time></trkpt><trkpt lat="40.8082413" lon="14.861122"><ele>862.2857142857142</ele><time>2026-04-25T13:20:22.999Z</time></trkpt><trkpt lat="40.8081917" lon="14.8611884"><ele>866.4285714285714</ele><time>2026-04-25T13:20:31.012Z</time></trkpt><trkpt lat="40.8081595" lon="14.861264"><ele>870.5714285714286</ele><time>2026-04-25T13:20:46.011Z</time></trkpt><trkpt lat="40.8080954" lon="14.8612788"><ele>874.7142857142857</ele><time>2026-04-25T13:20:52.012Z</time></trkpt><trkpt lat="40.8080252" lon="14.8612554"><ele>878.8571428571429</ele><time>2026-04-25T13:20:59.011Z</time></trkpt><trkpt lat="40.8079587" lon="14.8612894"><ele>883.0</ele><time>2026-04-25T13:21:07.014Z</time></trkpt><trkpt lat="40.8078883" lon="14.8613199"><ele>883.0</ele><time>2026-04-25T13:21:31.012Z</time></trkpt><trkpt lat="40.8078181" lon="14.8613534"><ele>883.0</ele><time>2026-04-25T13:21:36.017Z</time></trkpt><trkpt lat="40.8077523" lon="14.8614085"><ele>883.0</ele><time>2026-04-25T13:21:42.034Z</time></trkpt><trkpt lat="40.8076952" lon="14.8613661"><ele>883.0</ele><time>2026-04-25T13:21:51.058Z</time></trkpt><trkpt lat="40.8076329" lon="14.8613489"><ele>883.0</ele><time>2026-04-25T13:21:57.04Z</time></trkpt><trkpt lat="40.8075905" lon="14.8614225"><ele>883.0</ele><time>2026-04-25T13:22:04.063Z</time></trkpt><trkpt lat="40.8076073" lon="14.8615055"><ele>883.0</ele><time>2026-04-25T13:22:35.011Z</time></trkpt><trkpt lat="40.8076846" lon="14.8615116"><ele>883.2857142857143</ele><time>2026-04-25T13:23:48.012Z</time></trkpt><trkpt lat="40.8076473" lon="14.8616021"><ele>883.5714285714286</ele><time>2026-04-25T13:24:04.012Z</time></trkpt><trkpt lat="40.8076112" lon="14.8616711"><ele>883.8571428571429</ele><time>2026-04-25T13:24:10.014Z</time></trkpt><trkpt lat="40.8075703" lon="14.8617472"><ele>884.1428571428571</ele><time>2026-04-25T13:24:20.972Z</time></trkpt><trkpt lat="40.8075259" lon="14.8618091"><ele>884.4285714285713</ele><time>2026-04-25T13:24:28.012Z</time></trkpt><trkpt lat="40.8074876" lon="14.8618785"><ele>884.7142857142857</ele><time>2026-04-25T13:24:39.012Z</time></trkpt><trkpt lat="40.8075142" lon="14.8619563"><ele>885.0</ele><time>2026-04-25T13:24:52.011Z</time></trkpt><trkpt lat="40.8074394" lon="14.8620042"><ele>889.5</ele><time>2026-04-25T13:25:15.012Z</time></trkpt><trkpt lat="40.8073495" lon="14.8621004"><ele>894.0</ele><time>2026-04-25T13:25:41.012Z</time></trkpt><trkpt lat="40.807233" lon="14.8621287"><ele>898.5</ele><time>2026-04-25T13:26:20.028Z</time></trkpt><trkpt lat="40.8072475" lon="14.862213"><ele>903.0</ele><time>2026-04-25T13:27:50.011Z</time></trkpt><trkpt lat="40.8072717" lon="14.8621332"><ele>907.5</ele><time>2026-04-25T13:28:08.033Z</time></trkpt><trkpt lat="40.807199" lon="14.8621368"><ele>912.0</ele><time>2026-04-25T13:28:28.01Z</time></trkpt><trkpt lat="40.80722" lon="14.8622156"><ele>912.0</ele><time>2026-04-25T13:31:22.011Z</time></trkpt><trkpt lat="40.8071562" lon="14.8622388"><ele>911.9999999999999</ele><time>2026-04-25T13:34:22.01Z</time></trkpt><trkpt lat="40.807099" lon="14.8622782"><ele>912.0</ele><time>2026-04-25T13:35:33.01Z</time></trkpt><trkpt lat="40.8070576" lon="14.8623741"><ele>912.0</ele><time>2026-04-25T13:35:40.009Z</time></trkpt><trkpt lat="40.8070901" lon="14.8624455"><ele>911.9999999999999</ele><time>2026-04-25T13:35:51.009Z</time></trkpt><trkpt lat="40.8070473" lon="14.8625097"><ele>912.0</ele><time>2026-04-25T13:35:57.009Z</time></trkpt><trkpt lat="40.8069843" lon="14.862537"><ele>912.0</ele><time>2026-04-25T13:36:04.01Z</time></trkpt><trkpt lat="40.8069213" lon="14.8625403"><ele>912.0</ele><time>2026-04-25T13:36:11.009Z</time></trkpt><trkpt lat="40.8068593" lon="14.8625789"><ele>911.9999999999999</ele><time>2026-04-25T13:36:25.009Z</time></trkpt><trkpt lat="40.806799" lon="14.8626211"><ele>912.0</ele><time>2026-04-25T13:36:41.01Z</time></trkpt><trkpt lat="40.8067543" lon="14.8626815"><ele>912.0</ele><time>2026-04-25T13:36:45.009Z</time></trkpt><trkpt lat="40.8066903" lon="14.8626615"><ele>911.9999999999999</ele><time>2026-04-25T13:36:48.01Z</time></trkpt><trkpt lat="40.806655" lon="14.8627333"><ele>912.0</ele><time>2026-04-25T13:36:55.01Z</time></trkpt><trkpt lat="40.8066355" lon="14.8628135"><ele>912.0</ele><time>2026-04-25T13:36:59.01Z</time></trkpt><trkpt lat="40.8065821" lon="14.8628641"><ele>918.0</ele><time>2026-04-25T13:37:12.009Z</time></trkpt><trkpt lat="40.8065933" lon="14.8629533"><ele>923.9999999999999</ele><time>2026-04-25T13:37:23.01Z</time></trkpt><trkpt lat="40.8065251" lon="14.8629393"><ele>930.0</ele><time>2026-04-25T13:37:29.01Z</time></trkpt><trkpt lat="40.8064744" lon="14.86303"><ele>936.0</ele><time>2026-04-25T13:37:48.01Z</time></trkpt><trkpt lat="40.8064883" lon="14.8631206"><ele>941.9999999999999</ele><time>2026-04-25T13:37:53.01Z</time></trkpt><trkpt lat="40.8065221" lon="14.863207"><ele>948.0</ele><time>2026-04-25T13:38:09.009Z</time></trkpt><trkpt lat="40.8064913" lon="14.8632898"><ele>954.0</ele><time>2026-04-25T13:38:17.009Z</time></trkpt><trkpt lat="40.8064298" lon="14.8633234"><ele>958.6666666666666</ele><time>2026-04-25T13:38:32.01Z</time></trkpt><trkpt lat="40.8063863" lon="14.8634686"><ele>963.3333333333333</ele><time>2026-04-25T13:38:54.01Z</time></trkpt><trkpt lat="40.8063328" lon="14.8635312"><ele>968.0</ele><time>2026-04-25T13:39:21.01Z</time></trkpt><trkpt lat="40.8062788" lon="14.8636211"><ele>972.6666666666666</ele><time>2026-04-25T13:39:45.01Z</time></trkpt><trkpt lat="40.8062422" lon="14.8636959"><ele>977.3333333333333</ele><time>2026-04-25T13:39:52.01Z</time></trkpt><trkpt lat="40.8062393" lon="14.8637895"><ele>982.0</ele><time>2026-04-25T13:40:21.98Z</time></trkpt><trkpt lat="40.8061969" lon="14.8638529"><ele>982.0</ele><time>2026-04-25T13:40:31.01Z</time></trkpt><trkpt lat="40.8061929" lon="14.8639393"><ele>981.9999999999999</ele><time>2026-04-25T13:40:46.01Z</time></trkpt><trkpt lat="40.8061345" lon="14.8639954"><ele>982.0</ele><time>2026-04-25T13:42:06.008Z</time></trkpt><trkpt lat="40.8060926" lon="14.8640575"><ele>982.0</ele><time>2026-04-25T13:42:17.008Z</time></trkpt><trkpt lat="40.8060525" lon="14.8641287"><ele>981.9999999999999</ele><time>2026-04-25T13:42:30.049Z</time></trkpt><trkpt lat="40.8059949" lon="14.8642027"><ele>982.0</ele><time>2026-04-25T13:42:48.013Z</time></trkpt><trkpt lat="40.8060185" lon="14.8642806"><ele>982.0</ele><time>2026-04-25T13:43:19.008Z</time></trkpt><trkpt lat="40.8060672" lon="14.8643496"><ele>985.8333333333333</ele><time>2026-04-25T13:43:35.008Z</time></trkpt><trkpt lat="40.8061107" lon="14.8644142"><ele>989.6666666666666</ele><time>2026-04-25T13:43:58.009Z</time></trkpt><trkpt lat="40.8061183" lon="14.8644971"><ele>993.5</ele><time>2026-04-25T13:44:32.008Z</time></trkpt><trkpt lat="40.8060706" lon="14.864585"><ele>997.3333333333333</ele><time>2026-04-25T13:44:49.008Z</time></trkpt><trkpt lat="40.8060306" lon="14.8646526"><ele>1001.1666666666666</ele><time>2026-04-25T13:44:55.009Z</time></trkpt><trkpt lat="40.8059735" lon="14.8646968"><ele>1005.0</ele><time>2026-04-25T13:45:35.009Z</time></trkpt><trkpt lat="40.8058884" lon="14.8648465"><ele>1006.5714285714287</ele><time>2026-04-25T13:46:03.873Z</time></trkpt><trkpt lat="40.8059096" lon="14.8649355"><ele>1008.1428571428571</ele><time>2026-04-25T13:46:12.031Z</time></trkpt><trkpt lat="40.8058469" lon="14.8649487"><ele>1009.7142857142858</ele><time>2026-04-25T13:46:52.852Z</time></trkpt><trkpt lat="40.8057988" lon="14.8650121"><ele>1011.2857142857143</ele><time>2026-04-25T13:47:12.044Z</time></trkpt><trkpt lat="40.8057455" lon="14.8650694"><ele>1012.8571428571429</ele><time>2026-04-25T13:47:19.852Z</time></trkpt><trkpt lat="40.8056809" lon="14.8650493"><ele>1014.4285714285714</ele><time>2026-04-25T13:47:47.009Z</time></trkpt><trkpt lat="40.8056304" lon="14.8651012"><ele>1016.0</ele><time>2026-04-25T13:48:03.008Z</time></trkpt><trkpt lat="40.8055857" lon="14.8651643"><ele>1020.4285714285714</ele><time>2026-04-25T13:48:11.934Z</time></trkpt><trkpt lat="40.8055223" lon="14.8652117"><ele>1024.857142857143</ele><time>2026-04-25T13:48:17.008Z</time></trkpt><trkpt lat="40.8054649" lon="14.8652593"><ele>1029.2857142857142</ele><time>2026-04-25T13:48:34.008Z</time></trkpt><trkpt lat="40.8054086" lon="14.8653051"><ele>1033.7142857142858</ele><time>2026-04-25T13:48:47.019Z</time></trkpt><trkpt lat="40.8053702" lon="14.8653735"><ele>1038.142857142857</ele><time>2026-04-25T13:49:09.009Z</time></trkpt><trkpt lat="40.8053312" lon="14.8654467"><ele>1042.5714285714287</ele><time>2026-04-25T13:49:19.989Z</time></trkpt><trkpt lat="40.8052867" lon="14.8655083"><ele>1047.0</ele><time>2026-04-25T13:49:24.053Z</time></trkpt><trkpt lat="40.805256" lon="14.8655876"><ele>1047.0</ele><time>2026-04-25T13:51:54.029Z</time></trkpt><trkpt lat="40.805194" lon="14.8656049"><ele>1047.0</ele><time>2026-04-25T13:52:00.056Z</time></trkpt><trkpt lat="40.8051427" lon="14.8656839"><ele>1047.0</ele><time>2026-04-25T13:52:12.007Z</time></trkpt><trkpt lat="40.805166" lon="14.8657679"><ele>1047.0</ele><time>2026-04-25T13:52:25.044Z</time></trkpt><trkpt lat="40.8051991" lon="14.8656876"><ele>1047.0</ele><time>2026-04-25T13:52:27.007Z</time></trkpt><trkpt lat="40.8051491" lon="14.8658322"><ele>1047.0</ele><time>2026-04-25T13:52:50.007Z</time></trkpt><trkpt lat="40.8050765" lon="14.8659319"><ele>1053.857142857143</ele><time>2026-04-25T13:53:28.007Z</time></trkpt><trkpt lat="40.8050192" lon="14.8659678"><ele>1060.7142857142858</ele><time>2026-04-25T13:53:49.008Z</time></trkpt><trkpt lat="40.8049436" lon="14.8660107"><ele>1067.5714285714284</ele><time>2026-04-25T13:53:55.008Z</time></trkpt><trkpt lat="40.8050011" lon="14.8660477"><ele>1074.4285714285716</ele><time>2026-04-25T13:54:39.008Z</time></trkpt><trkpt lat="40.8050704" lon="14.866056"><ele>1081.2857142857142</ele><time>2026-04-25T13:54:45.008Z</time></trkpt><trkpt lat="40.8050328" lon="14.8661311"><ele>1088.142857142857</ele><time>2026-04-25T13:55:05.007Z</time></trkpt><trkpt lat="40.8049673" lon="14.8661533"><ele>1095.0</ele><time>2026-04-25T13:55:19.008Z</time></trkpt><trkpt lat="40.804942" lon="14.8662342"><ele>1094.9999999999998</ele><time>2026-04-25T13:55:38.007Z</time></trkpt><trkpt lat="40.8048936" lon="14.8663031"><ele>1095.0</ele><time>2026-04-25T13:55:41.008Z</time></trkpt><trkpt lat="40.8049818" lon="14.8663771"><ele>1095.0</ele><time>2026-04-25T13:56:11.008Z</time></trkpt><trkpt lat="40.8050523" lon="14.8663989"><ele>1095.0</ele><time>2026-04-25T13:57:17.007Z</time></trkpt><trkpt lat="40.8049976" lon="14.8663541"><ele>1095.0</ele><time>2026-04-25T13:57:40.007Z</time></trkpt><trkpt lat="40.804928" lon="14.8663408"><ele>1094.9999999999998</ele><time>2026-04-25T13:58:01.008Z</time></trkpt><trkpt lat="40.804865" lon="14.8663221"><ele>1095.0</ele><time>2026-04-25T13:58:28.007Z</time></trkpt><trkpt lat="40.8048795" lon="14.8664177"><ele>1095.0</ele><time>2026-04-25T13:58:46.008Z</time></trkpt><trkpt lat="40.8048152" lon="14.8664283"><ele>1095.0</ele><time>2026-04-25T13:59:30.008Z</time></trkpt><trkpt lat="40.8048809" lon="14.8665222"><ele>1095.0</ele><time>2026-04-25T13:59:40.008Z</time></trkpt><trkpt lat="40.804819" lon="14.8665621"><ele>1095.0</ele><time>2026-04-25T14:00:02.008Z</time></trkpt><trkpt lat="40.8048495" lon="14.8666403"><ele>1095.0</ele><time>2026-04-25T14:00:20.008Z</time></trkpt><trkpt lat="40.8047345" lon="14.8667994"><ele>1094.9999999999998</ele><time>2026-04-25T14:00:42.015Z</time></trkpt><trkpt lat="40.8046833" lon="14.8667388"><ele>1095.0</ele><time>2026-04-25T14:01:02.007Z</time></trkpt><trkpt lat="40.8046214" lon="14.8667062"><ele>1095.0</ele><time>2026-04-25T14:01:30.032Z</time></trkpt><trkpt lat="40.8046132" lon="14.8666234"><ele>1095.0</ele><time>2026-04-25T14:01:40.006Z</time></trkpt><trkpt lat="40.8045751" lon="14.866557"><ele>1095.0</ele><time>2026-04-25T14:01:50.006Z</time></trkpt><trkpt lat="40.8044937" lon="14.8665707"><ele>1094.9999999999998</ele><time>2026-04-25T14:02:43.05Z</time></trkpt><trkpt lat="40.8044488" lon="14.8665018"><ele>1095.0</ele><time>2026-04-25T14:02:47.063Z</time></trkpt><trkpt lat="40.8043883" lon="14.866456"><ele>1098.5</ele><time>2026-04-25T14:02:52.945Z</time></trkpt><trkpt lat="40.804308" lon="14.866434"><ele>1102.0</ele><time>2026-04-25T14:03:28.007Z</time></trkpt><trkpt lat="40.8042552" lon="14.8663538"><ele>1105.5</ele><time>2026-04-25T14:03:56.053Z</time></trkpt><trkpt lat="40.8042824" lon="14.8664612"><ele>1109.0</ele><time>2026-04-25T14:04:41.007Z</time></trkpt><trkpt lat="40.8042182" lon="14.8664972"><ele>1112.5</ele><time>2026-04-25T14:06:38.007Z</time></trkpt><trkpt lat="40.8041649" lon="14.8665704"><ele>1116.0</ele><time>2026-04-25T14:06:55.007Z</time></trkpt><trkpt lat="40.804101" lon="14.8666096"><ele>1115.9999999999998</ele><time>2026-04-25T14:08:08.006Z</time></trkpt><trkpt lat="40.8040386" lon="14.8666287"><ele>1116.0</ele><time>2026-04-25T14:08:28.006Z</time></trkpt><trkpt lat="40.8039663" lon="14.8666571"><ele>1116.0</ele><time>2026-04-25T14:09:00.007Z</time></trkpt><trkpt lat="40.8039152" lon="14.8667123"><ele>1116.0</ele><time>2026-04-25T14:09:06.007Z</time></trkpt><trkpt lat="40.8039013" lon="14.866794"><ele>1116.0</ele><time>2026-04-25T14:09:16.007Z</time></trkpt><trkpt lat="40.8038401" lon="14.866774"><ele>1115.9999999999998</ele><time>2026-04-25T14:09:35.006Z</time></trkpt><trkpt lat="40.8038289" lon="14.8668587"><ele>1116.0</ele><time>2026-04-25T14:09:55.007Z</time></trkpt><trkpt lat="40.8038774" lon="14.8668056"><ele>1149.0</ele><time>2026-04-25T14:20:07.004Z</time></trkpt><trkpt lat="40.8038119" lon="14.8668138"><ele>1149.0</ele><time>2026-04-25T14:20:15.005Z</time></trkpt></trkseg></trk></gpx>